Time;durP1;ratioP1;P1;durP2;ratioP2;P2;SDS_P1;SDS_P2;PMS_P1;PMS_P2;Temp;Humidity;BMP_temperature;BMP_pressure;BME280_temperature;BME280_humidity;BME280_pressure;Samples;Min_cycle;Max_cycle;Signal;HPM_P1;HPM_P2
2021/11/18 00:01:18;;;;;;;268.33;190.55;;;308.00;2278.40;;;;;;5112680;28;20106;-69
2021/11/18 00:03:44;;;;;;;;;;;308.00;2278.40;;;;;;5113103;28;20023;-69
2021/11/18 00:06:11;;;;;;;206.45;136.85;;;308.00;2278.40;;;;;;5112587;28;19908;-68
2021/11/18 00:08:37;;;;;;;202.77;137.57;;;308.00;2252.80;;;;;;5112334;28;20035;-68
2021/11/18 00:11:06;;;;;;;150.43;102.93;;;308.00;2252.80;;;;;;5112673;28;20016;-67
2021/11/18 00:13:35;;;;;;;141.18;92.47;;;308.10;2252.80;;;;;;5115182;28;20055;-67
2021/11/18 00:16:02;;;;;;;144.57;94.97;;;307.90;2278.40;;;;;;5116872;28;20371;-68
2021/11/18 00:18:30;;;;;;;139.85;93.32;;;307.90;2278.40;;;;;;5117034;28;20030;-67
2021/11/18 00:21:06;;;;;;;140.88;97.35;;;307.80;2304.00;;;;;;5116900;28;20023;-69
2021/11/18 00:23:36;;;;;;;181.65;123.25;;;308.00;2278.40;;;;;;5116720;28;20122;-67
2021/11/18 00:26:02;;;;;;;197.48;136.93;;;308.10;2252.80;;;;;;5116823;28;20028;-67
2021/11/18 00:28:28;;;;;;;228.23;161.85;;;307.90;2278.40;;;;;;5116707;28;20502;-68
2021/11/18 00:30:54;;;;;;;243.70;172.95;;;307.90;2278.40;;;;;;5116745;28;20027;-67
2021/11/18 00:33:21;;;;;;;252.48;175.90;;;307.90;2278.40;;;;;;5116840;28;20020;-68
2021/11/18 00:35:47;;;;;;;243.95;167.23;;;307.80;2304.00;;;;;;5116519;28;20039;-67
2021/11/18 00:38:13;;;;;;;242.57;167.35;;;307.80;2304.00;;;;;;5116894;28;20027;-67
2021/11/18 00:40:41;;;;;;;231.90;163.70;;;308.00;2278.40;;;;;;5116424;28;20481;-67
2021/11/18 00:43:10;;;;;;;217.45;152.23;;;308.00;2252.80;;;;;;5116707;28;20478;-67
2021/11/18 00:45:37;;;;;;;237.45;165.50;;;308.00;2252.80;;;;;;5116633;28;20390;-69
2021/11/18 00:48:03;;;;;;;246.07;170.23;;;308.00;2252.80;;;;;;5116458;28;20019;-69
2021/11/18 00:50:54;;;;;;;253.93;175.35;;;308.00;2252.80;;;;;;5116444;28;20087;-69
2021/11/18 00:53:20;;;;;;;243.38;176.10;;;308.00;2252.80;;;;;;5053574;28;20041;-67
2021/11/18 00:55:47;;;;;;;260.67;184.25;;;308.00;2278.40;;;;;;5053347;28;20053;-68
2021/11/18 00:58:13;;;;;;;264.67;188.38;;;308.10;2252.80;;;;;;5053526;28;20155;-67
2021/11/18 01:00:41;;;;;;;257.65;179.10;;;308.00;2278.40;;;;;;5053514;28;20061;-67
2021/11/18 01:03:07;;;;;;;251.77;173.00;;;;;;;;;;5053439;28;20100;-68
2021/11/18 01:05:37;;;;;;;276.27;179.90;;;307.40;2304.00;;;;;;5053307;28;20048;-68
2021/11/18 01:08:03;;;;;;;255.98;169.15;;;;;;;;;;5053197;28;20047;-68
2021/11/18 01:10:32;;;;;;;241.10;160.68;;;;;;;;;;5053334;28;20045;-68
2021/11/18 01:12:59;;;;;;;225.50;147.50;;;;;;;;;;5053177;28;20036;-68
2021/11/18 01:15:28;;;;;;;184.93;129.63;;;307.30;2304.00;;;;;;5053020;28;20032;-68
2021/11/18 01:17:54;;;;;;;182.70;124.32;;;307.40;2304.00;;;;;;5053153;28;20206;-67
2021/11/18 01:20:23;;;;;;;172.88;119.40;;;307.50;2304.00;;;;;;5053043;28;20623;-68
2021/11/18 01:22:51;;;;;;;185.45;122.38;;;307.30;2304.00;;;;;;5052957;28;20043;-68
2021/11/18 01:25:17;;;;;;;181.23;122.55;;;307.40;2304.00;;;;;;5052575;28;20045;-68
2021/11/18 01:27:43;;;;;;;169.90;110.50;;;307.20;2304.00;;;;;;5053033;28;20119;-67
2021/11/18 01:30:16;;;;;;;168.30;112.25;;;307.20;2304.00;;;;;;5080749;28;20092;-68
2021/11/18 01:32:43;;;;;;;207.45;132.55;;;;;;;;;;5115444;28;20051;-68
2021/11/18 01:35:10;;;;;;;203.27;136.48;;;;;;;;;;5115726;28;20496;-67
2021/11/18 01:37:36;;;;;;;164.65;113.80;;;;;;;;;;5115759;28;20063;-67
2021/11/18 01:40:02;;;;;;;163.48;109.88;;;;;;;;;;5115577;28;20565;-67
2021/11/18 01:42:28;;;;;;;146.52;103.38;;;;;;;;;;5115654;28;20030;-67
2021/11/18 01:44:54;;;;;;;165.52;108.25;;;;;;;;;;5115491;28;20020;-68
2021/11/18 01:47:21;;;;;;;162.05;106.70;;;282.50;2278.40;;;;;;5115452;28;20027;-68
2021/11/18 01:49:48;;;;;;;151.95;98.90;;;307.30;2304.00;;;;;;5115457;28;20019;-67
2021/11/18 01:52:17;;;;;;;159.40;107.32;;;;;;;;;;5115412;28;20026;-68
2021/11/18 01:54:44;;;;;;;159.18;107.93;;;;;;;;;;5115155;28;20026;-68
2021/11/18 01:57:12;;;;;;;142.20;95.65;;;;;;;;;;5115202;28;20177;-69
2021/11/18 01:59:39;;;;;;;124.75;84.70;;;;;;;;;;5115288;28;20020;-67
2021/11/18 02:02:06;;;;;;;111.00;71.43;;;;;;;;;;5115126;28;20034;-68
2021/11/18 02:04:32;;;;;;;101.40;67.13;;;;;;;;;;5115325;28;20023;-68
2021/11/18 02:07:06;;;;;;;96.05;64.97;;;;;;;;;;5097097;28;20038;-68
2021/11/18 02:09:38;;;;;;;102.13;63.97;;;282.20;2278.40;;;;;;5114854;28;20024;-67
2021/11/18 02:12:06;;;;;;;;;;;307.20;2304.00;;;;;;5115492;28;20028;-66
2021/11/18 02:14:33;;;;;;;92.57;59.70;;;282.40;2278.40;;;;;;5114803;28;19916;-67
2021/11/18 02:17:02;;;;;;;87.03;58.47;;;282.20;2278.40;;;;;;5115104;28;20023;-68
2021/11/18 02:19:33;;;;;;;87.50;59.83;;;282.30;2278.40;;;;;;5114989;28;20023;-69
2021/11/18 02:21:59;;;;;;;90.57;60.13;;;282.30;2278.40;;;;;;5114567;28;20055;-68
2021/11/18 02:24:28;;;;;;;90.07;60.30;;;282.10;2278.40;;;;;;5114709;28;20055;-68
2021/11/18 02:26:55;;;;;;;89.10;60.05;;;282.00;2278.40;;;;;;5114495;28;20465;-68
2021/11/18 02:29:22;;;;;;;93.05;61.75;;;282.20;2278.40;;;;;;5114744;28;20426;-68
2021/11/18 02:31:50;;;;;;;91.57;60.53;;;;;;;;;;5114624;28;20016;-69
2021/11/18 02:34:18;;;;;;;91.40;60.30;;;;;;;;;;5114419;28;20032;-68
2021/11/18 02:36:44;;;;;;;96.40;60.67;;;307.50;2304.00;;;;;;5113707;28;20454;-68
2021/11/18 02:39:10;;;;;;;96.03;62.40;;;;;;;;;;5114333;28;20152;-69
2021/11/18 02:41:37;;;;;;;98.38;62.60;;;;;;;;;;5114119;28;20026;-69
2021/11/18 02:44:03;;;;;;;90.30;59.33;;;;;;;;;;5114237;28;20047;-68
2021/11/18 02:46:30;;;;;;;85.13;59.78;;;;;;;;;;5114283;28;20059;-68
2021/11/18 02:48:56;;;;;;;85.28;57.63;;;;;;;;;;5114181;28;20023;-68
2021/11/18 02:51:23;;;;;;;81.63;54.90;;;;;;;;;;5114343;28;20032;-68
2021/11/18 02:53:49;;;;;;;83.35;53.60;;;;;;;;;;5113942;28;20466;-68
2021/11/18 02:56:15;;;;;;;77.13;51.97;;;282.40;2278.40;;;;;;5114434;28;20085;-68
2021/11/18 02:58:42;;;;;;;79.72;55.33;;;282.50;2278.40;;;;;;5114019;28;20099;-67
2021/11/18 03:01:11;;;;;;;78.22;52.72;;;282.30;2278.40;;;;;;5114002;28;20110;-67
2021/11/18 03:03:39;;;;;;;80.00;53.90;;;282.40;2278.40;;;;;;5114081;28;20016;-67
2021/11/18 03:06:05;;;;;;;76.97;52.47;;;282.50;2278.40;;;;;;5113802;28;20037;-67
2021/11/18 03:08:31;;;;;;;80.13;52.97;;;;;;;;;;5114180;28;20155;-69
2021/11/18 03:10:58;;;;;;;78.78;52.15;;;307.30;2304.00;;;;;;5113676;28;20084;-68
2021/11/18 03:13:25;;;;;;;81.50;53.03;;;282.50;2278.40;;;;;;5114142;28;20021;-68
2021/11/18 03:15:52;;;;;;;80.03;52.00;;;282.50;2278.40;;;;;;5113398;28;20032;-67
2021/11/18 03:18:22;;;;;;;72.55;51.05;;;282.20;2278.40;;;;;;5113436;28;20053;-68
2021/11/18 03:20:49;;;;;;;73.78;50.30;;;282.40;2278.40;;;;;;5113340;28;20024;-67
2021/11/18 03:23:16;;;;;;;73.03;47.90;;;282.30;2278.40;;;;;;5113481;28;20019;-68
2021/11/18 03:25:42;;;;;;;76.28;50.72;;;307.30;2304.00;;;;;;5113369;28;20024;-68
2021/11/18 03:28:09;;;;;;;70.00;46.90;;;282.50;2278.40;;;;;;5094631;28;20032;-68
2021/11/18 03:30:39;;;;;;;73.15;47.05;;;307.30;2304.00;;;;;;5113401;28;20031;-68
2021/11/18 03:33:14;;;;;;;77.22;47.33;;;307.30;2304.00;;;;;;5113486;28;20023;-68
2021/11/18 03:35:40;;;;;;;69.13;46.50;;;307.30;2304.00;;;;;;5113500;28;20523;-68
2021/11/18 03:38:06;;;;;;;68.40;45.63;;;282.40;2278.40;;;;;;5113190;28;20020;-68
2021/11/18 03:40:32;;;;;;;72.03;46.30;;;282.50;2278.40;;;;;;5113388;28;20028;-67
2021/11/18 03:42:59;;;;;;;74.57;47.35;;;282.20;2278.40;;;;;;5112984;28;20533;-68
2021/11/18 03:45:27;;;;;;;73.72;46.22;;;282.30;2278.40;;;;;;5113331;28;20019;-68
2021/11/18 03:47:53;;;;;;;72.78;45.80;;;;;;;;;;5112977;28;20047;-68
2021/11/18 03:50:20;;;;;;;73.15;45.95;;;;;;;;;;5113233;28;20098;-68
2021/11/18 03:52:46;;;;;;;72.10;46.65;;;;;;;;;;5113140;28;20488;-67
2021/11/18 03:55:14;;;;;;;72.18;46.28;;;;;;;;;;5112909;28;20035;-69
2021/11/18 03:57:40;;;;;;;73.35;46.25;;;;;;;;;;5112873;28;20020;-68
2021/11/18 04:00:09;;;;;;;71.28;46.40;;;;;;;;;;5094711;28;20067;-68
2021/11/18 04:02:36;;;;;;;70.65;45.53;;;;;;;;;;5113116;28;20149;-69
2021/11/18 04:05:02;;;;;;;69.05;45.42;;;;;;;;;;5112976;28;20023;-68
2021/11/18 04:07:33;;;;;;;73.28;47.53;;;;;;;;;;5113225;28;20028;-69
2021/11/18 04:09:59;;;;;;;72.07;48.05;;;;;;;;;;5112821;28;20055;-68
2021/11/18 04:12:25;;;;;;;73.80;47.95;;;;;;;;;;5112858;28;20028;-68
2021/11/18 04:14:51;;;;;;;74.78;48.38;;;;;;;;;;5112868;28;20035;-68
2021/11/18 04:17:17;;;;;;;73.43;47.13;;;;;;;;;;5112933;28;20052;-69
2021/11/18 04:19:43;;;;;;;70.28;47.05;;;;;;;;;;5112873;28;20073;-67
2021/11/18 04:22:10;;;;;;;73.60;47.80;;;;;;;;;;5112826;28;20020;-68
2021/11/18 04:24:39;;;;;;;72.65;47.40;;;282.30;2278.40;;;;;;5112915;28;20028;-68
2021/11/18 04:27:05;;;;;;;75.82;48.25;;;282.40;2278.40;;;;;;5112444;28;20047;-67
2021/11/18 04:29:31;;;;;;;80.28;50.95;;;282.50;2278.40;;;;;;5113009;28;20031;-68
2021/11/18 04:32:09;;;;;;;76.63;50.65;;;;;;;;;;5112847;28;20024;-68
2021/11/18 04:34:35;;;;;;;79.95;52.72;;;;;;;;;;5112748;28;20084;-68
2021/11/18 04:37:01;;;;;;;75.97;50.67;;;;;;;;;;5112808;28;20065;-69
2021/11/18 04:39:27;;;;;;;80.75;53.30;;;;;;;;;;5094643;28;20032;-68
2021/11/18 04:41:53;;;;;;;83.30;53.58;;;;;;;;;;5112493;28;20505;-68
2021/11/18 04:44:21;;;;;;;88.40;57.22;;;;;;;;;;5112783;28;20028;-68
2021/11/18 04:46:47;;;;;;;86.88;55.83;;;;;;;;;;5112653;28;20024;-68
2021/11/18 04:49:13;;;;;;;88.38;57.10;;;;;;;;;;5112600;28;20212;-68
2021/11/18 04:51:40;;;;;;;83.50;53.72;;;;;;;;;;5112559;28;20160;-68
2021/11/18 04:54:06;;;;;;;83.05;55.42;;;;;;;;;;5112437;28;20102;-69
2021/11/18 04:56:32;;;;;;;78.60;53.05;;;;;;;;;;5112128;28;20036;-68
2021/11/18 04:58:59;;;;;;;81.60;51.55;;;307.60;2252.80;;;;;;5113857;28;20054;-67
2021/11/18 05:01:26;;;;;;;75.35;52.08;;;307.40;2252.80;;;;;;5116253;28;20099;-68
2021/11/18 05:03:52;;;;;;;81.60;52.90;;;307.50;2278.40;;;;;;5116155;28;20103;-68
2021/11/18 05:06:19;;;;;;;78.35;52.55;;;307.30;2304.00;;;;;;5116088;28;20122;-67
2021/11/18 05:08:45;;;;;;;86.13;54.03;;;307.50;2304.00;;;;;;5116218;28;20046;-68
2021/11/18 05:11:11;;;;;;;81.63;54.58;;;307.70;2278.40;;;;;;5115803;28;20028;-68
2021/11/18 05:13:38;;;;;;;89.22;55.80;;;307.80;2252.80;;;;;;5116145;28;20031;-68
2021/11/18 05:16:06;;;;;;;79.53;53.33;;;307.60;2278.40;;;;;;5115772;28;20036;-68
2021/11/18 05:18:33;;;;;;;88.82;57.78;;;307.60;2278.40;;;;;;5115962;28;20054;-68
2021/11/18 05:20:59;;;;;;;88.72;58.55;;;307.40;2304.00;;;;;;5115822;28;20028;-68
2021/11/18 05:23:27;;;;;;;94.97;61.55;;;307.60;2304.00;;;;;;5115916;28;20065;-68
2021/11/18 05:25:53;;;;;;;86.72;57.28;;;307.80;2278.40;;;;;;5115760;28;20022;-69
2021/11/18 05:28:19;;;;;;;100.82;64.57;;;307.50;2278.40;;;;;;5115474;28;20035;-68
2021/11/18 05:30:46;;;;;;;95.70;62.38;;;307.60;2304.00;;;;;;5115905;28;20058;-68
2021/11/18 05:33:14;;;;;;;91.78;60.55;;;307.70;2278.40;;;;;;5115545;28;20024;-68
2021/11/18 05:35:42;;;;;;;99.97;66.22;;;307.80;2252.80;;;;;;5115929;28;20056;-68
2021/11/18 05:38:09;;;;;;;95.90;62.60;;;307.60;2304.00;;;;;;5115907;28;20039;-68
2021/11/18 05:40:36;;;;;;;91.75;58.97;;;307.70;2252.80;;;;;;5115838;28;20038;-68
2021/11/18 05:43:03;;;;;;;94.30;61.03;;;307.80;2252.80;;;;;;5115498;28;20030;-68
2021/11/18 05:45:32;;;;;;;96.30;61.08;;;307.50;2304.00;;;;;;5115467;28;20420;-68
2021/11/18 05:47:58;;;;;;;95.28;60.58;;;307.60;2278.40;;;;;;5115337;28;20027;-68
2021/11/18 05:50:25;;;;;;;81.00;55.80;;;307.70;2278.40;;;;;;5097015;28;20606;-68
2021/11/18 05:52:51;;;;;;;87.28;55.08;;;307.80;2252.80;;;;;;5115365;28;20072;-68
2021/11/18 05:55:20;;;;;;;82.43;52.22;;;307.80;2252.80;;;;;;5114989;28;20039;-68
2021/11/18 05:57:46;;;;;;;83.68;54.28;;;307.80;2252.80;;;;;;5115328;28;20062;-68
2021/11/18 06:00:19;;;;;;;79.35;51.35;;;307.80;2252.80;;;;;;5115380;28;20022;-67
2021/11/18 06:02:45;;;;;;;75.28;51.90;;;307.80;2252.80;;;;;;5115250;28;20027;-68
2021/11/18 06:05:12;;;;;;;78.85;54.22;;;307.80;2252.80;;;;;;5097108;28;20032;-67
2021/11/18 06:07:38;;;;;;;88.25;57.17;;;307.80;2252.80;;;;;;5115562;28;20104;-68
2021/11/18 06:10:05;;;;;;;78.32;52.42;;;307.80;2252.80;;;;;;5113851;28;20051;-67
2021/11/18 06:12:31;;;;;;;83.82;54.42;;;307.70;2278.40;;;;;;5114875;28;20091;-68
2021/11/18 06:14:57;;;;;;;78.88;53.00;;;307.50;2304.00;;;;;;5114809;28;20114;-67
2021/11/18 06:17:22;;;;;;;82.60;53.22;;;307.60;2304.00;;;;;;5114949;28;20081;-68
2021/11/18 06:19:48;;;;;;;80.88;53.15;;;307.70;2304.00;;;;;;5115089;28;20024;-67
2021/11/18 06:22:14;;;;;;;85.82;55.33;;;307.50;2304.00;;;;;;5114509;28;20474;-67
2021/11/18 06:24:40;;;;;;;83.18;53.00;;;307.60;2304.00;;;;;;5114673;28;20454;-67
2021/11/18 06:27:06;;;;;;;85.47;54.13;;;307.60;2304.00;;;;;;5114663;28;20505;-67
2021/11/18 06:29:33;;;;;;;89.57;57.17;;;307.50;2304.00;;;;;;5096159;28;20035;-67
2021/11/18 06:32:02;;;;;;;85.60;55.30;;;307.60;2304.00;;;;;;5114652;28;20106;-67
2021/11/18 06:34:28;;;;;;;80.30;55.05;;;307.60;2304.00;;;;;;5114416;28;20064;-67
2021/11/18 06:36:54;;;;;;;84.00;56.58;;;307.60;2304.00;;;;;;5096035;28;20075;-68
2021/11/18 06:39:21;;;;;;;85.65;56.35;;;307.40;2304.00;;;;;;5114371;28;20757;-67
2021/11/18 06:41:48;;;;;;;86.63;56.03;;;307.50;2304.00;;;;;;5114526;28;20104;-69
2021/11/18 06:44:15;;;;;;;81.40;54.08;;;;;;;;;;5114283;28;20382;-68
2021/11/18 06:46:41;;;;;;;87.13;54.75;;;307.30;2304.00;;;;;;5114350;28;20024;-67
2021/11/18 06:49:09;;;;;;;85.80;55.97;;;307.40;2304.00;;;;;;5114240;28;20023;-68
2021/11/18 06:51:40;;;;;;;131.88;94.68;;;307.40;2304.00;;;;;;5114309;28;20020;-67
2021/11/18 06:54:06;;;;;;;90.50;61.05;;;307.40;2304.00;;;;;;5114167;28;20103;-67
2021/11/18 06:56:33;;;;;;;97.18;66.95;;;307.30;2304.00;;;;;;5113956;28;20071;-68
2021/11/18 06:59:00;;;;;;;95.63;66.90;;;307.20;2304.00;;;;;;5113978;28;20012;-68
2021/11/18 07:01:26;;;;;;;87.57;60.40;;;307.30;2304.00;;;;;;5113614;28;20030;-69
2021/11/18 07:03:52;;;;;;;91.55;63.38;;;282.50;2278.40;;;;;;5113811;28;20369;-68
2021/11/18 07:06:20;;;;;;;92.68;59.40;;;282.50;2278.40;;;;;;5113514;28;20023;-69
2021/11/18 07:08:46;;;;;;;90.28;62.10;;;307.20;2304.00;;;;;;5113646;28;20035;-68
2021/11/18 07:11:17;;;;;;;97.90;64.15;;;282.40;2278.40;;;;;;5113596;28;20390;-69
2021/11/18 07:13:43;;;;;;;87.38;60.15;;;307.30;2304.00;;;;;;5113610;28;20020;-68
2021/11/18 07:16:12;;;;;;;92.93;61.80;;;307.40;2304.00;;;;;;5113479;28;20077;-68
2021/11/18 07:18:38;;;;;;;85.75;59.67;;;307.40;2304.00;;;;;;5113960;28;20024;-68
2021/11/18 07:21:04;;;;;;;81.07;56.88;;;307.50;2304.00;;;;;;5113320;28;20030;-68
2021/11/18 07:23:30;;;;;;;84.05;57.55;;;;;;;;;;5113347;28;20020;-68
2021/11/18 07:25:58;;;;;;;85.00;60.10;;;;;;;;;;5113272;28;20030;-69
2021/11/18 07:28:26;;;;;;;88.78;61.58;;;;;;;;;;5113194;28;20050;-68
2021/11/18 07:30:53;;;;;;;103.45;70.53;;;;;;;;;;5113382;28;20023;-68
2021/11/18 07:33:20;;;;;;;138.52;87.35;;;;;;;;;;5113709;28;20020;-68
2021/11/18 07:35:46;;;;;;;111.88;80.35;;;;;;;;;;5113249;28;20440;-69
2021/11/18 07:38:12;;;;;;;99.47;72.47;;;;;;;;;;5113429;28;20462;-69
2021/11/18 07:40:39;;;;;;;81.22;57.45;;;;;;;;;;5094926;28;20077;-69
2021/11/18 07:43:08;;;;;;;92.13;67.00;;;;;;;;;;5113103;28;20030;-68
2021/11/18 07:45:35;;;;;;;88.47;60.72;;;;;;;;;;5113216;28;20023;-68
2021/11/18 07:48:01;;;;;;;79.35;62.30;;;;;;;;;;5112994;28;20084;-70
2021/11/18 07:50:26;;;;;;;88.80;65.68;;;282.30;2278.40;;;;;;5113090;28;20505;-68
2021/11/18 07:52:52;;;;;;;81.60;56.90;;;282.30;2278.40;;;;;;5112942;28;20053;-68
2021/11/18 07:55:20;;;;;;;77.63;56.20;;;;;;;;;;5113019;28;20039;-68
2021/11/18 07:57:46;;;;;;;78.68;56.03;;;282.10;2278.40;;;;;;5112948;28;20023;-67
2021/11/18 08:00:14;;;;;;;70.07;51.88;;;282.40;2278.40;;;;;;5112876;28;20024;-71
2021/11/18 08:02:40;;;;;;;67.68;47.47;;;282.50;2278.40;;;;;;5112730;28;20027;-69
2021/11/18 08:05:07;;;;;;;78.75;59.45;;;282.20;2278.40;;;;;;5112923;28;20019;-70
2021/11/18 08:07:34;;;;;;;81.10;55.42;;;;;;;;;;5112973;28;20030;-70
2021/11/18 08:09:59;;;;;;;76.35;53.55;;;307.20;2304.00;;;;;;5112528;28;20031;-67
2021/11/18 08:12:26;;;;;;;68.07;47.42;;;307.30;2304.00;;;;;;5112893;28;20028;-68
2021/11/18 08:14:51;;;;;;;73.78;50.95;;;307.30;2304.00;;;;;;5112708;28;20482;-67
2021/11/18 08:17:17;;;;;;;65.05;47.67;;;307.40;2304.00;;;;;;5112816;28;20076;-70
2021/11/18 08:19:43;;;;;;;48.33;37.28;;;307.50;2304.00;;;;;;5112854;28;20376;-70
2021/11/18 08:22:09;;;;;;;66.25;44.63;;;307.60;2304.00;;;;;;5112591;28;20028;-69
2021/11/18 08:24:35;;;;;;;58.13;39.38;;;307.60;2304.00;;;;;;5112672;28;20023;-70
2021/11/18 08:27:02;;;;;;;55.10;35.20;;;307.60;2304.00;;;;;;5112445;28;20127;-70
2021/11/18 08:29:29;;;;;;;43.78;30.33;;;307.90;2304.00;;;;;;5112761;28;20573;-70
2021/11/18 08:31:56;;;;;;;37.80;28.10;;;307.60;2304.00;;;;;;5112523;28;20030;-70
2021/11/18 08:34:23;;;;;;;43.20;29.65;;;307.60;2304.00;;;;;;5114800;28;20019;-68
2021/11/18 08:36:50;;;;;;;41.33;28.50;;;307.60;2304.00;;;;;;5116582;28;20038;-70
2021/11/18 08:39:22;;;;;;;40.15;27.42;;;307.60;2304.00;;;;;;5116743;28;20020;-70
2021/11/18 08:41:51;;;;;;;53.33;37.30;;;307.60;2304.00;;;;;;5116861;28;20416;-70
2021/11/18 08:44:18;;;;;;;55.58;37.08;;;307.50;2304.00;;;;;;5116246;28;20024;-69
2021/11/18 08:46:46;;;;;;;62.40;44.90;;;307.60;2304.00;;;;;;5116162;28;20144;-72
2021/11/18 08:49:11;;;;;;;55.75;37.85;;;307.60;2304.00;;;;;;5116335;28;20016;-70
2021/11/18 08:51:38;;;;;;;49.40;35.95;;;307.40;2304.00;;;;;;5116362;28;20121;-70
2021/11/18 08:54:08;;;;;;;37.45;27.17;;;307.30;2304.00;;;;;;5116447;28;20106;-70
2021/11/18 08:56:35;;;;;;;41.08;29.55;;;;;;;;;;5115883;28;20121;-71
2021/11/18 08:59:02;;;;;;;41.67;29.80;;;;;;;;;;5116277;28;20019;-70
2021/11/18 09:01:31;;;;;;;49.92;34.53;;;;;;;;;;5116336;28;20036;-69
2021/11/18 09:04:00;;;;;;;49.40;33.25;;;307.20;2304.00;;;;;;5116195;28;20024;-70
2021/11/18 09:06:26;;;;;;;50.20;33.40;;;307.20;2304.00;;;;;;5115831;28;20020;-69
2021/11/18 09:08:53;;;;;;;55.08;37.78;;;307.30;2304.00;;;;;;5116055;28;20340;-70
2021/11/18 09:11:20;;;;;;;47.58;33.03;;;307.30;2304.00;;;;;;5115861;28;20028;-70
2021/11/18 09:13:47;;;;;;;56.20;39.35;;;282.50;2278.40;;;;;;5116074;28;20016;-69
2021/11/18 09:16:13;;;;;;;53.45;35.35;;;307.50;2304.00;;;;;;5115780;28;20032;-71
2021/11/18 09:18:40;;;;;;;69.90;52.45;;;307.30;2304.00;;;;;;5115670;28;20046;-70
2021/11/18 09:21:08;;;;;;;60.88;46.20;;;307.20;2304.00;;;;;;5115388;28;20028;-70
2021/11/18 09:23:38;;;;;;;55.70;39.72;;;282.40;2278.40;;;;;;5114954;28;20030;-70
2021/11/18 09:26:05;;;;;;;36.20;27.45;;;282.50;2278.40;;;;;;5115751;28;20028;-70
2021/11/18 09:28:31;;;;;;;48.22;33.00;;;282.20;2278.40;;;;;;5115525;28;20044;-70
2021/11/18 09:31:01;;;;;;;46.83;32.67;;;282.40;2278.40;;;;;;5115547;28;20390;-70
2021/11/18 09:33:27;;;;;;;51.90;34.13;;;;;;;;;;5115615;28;20023;-71
2021/11/18 09:35:57;;;;;;;53.15;33.95;;;307.20;2304.00;;;;;;5115688;28;20390;-71
2021/11/18 09:38:25;;;;;;;52.00;38.22;;;307.30;2304.00;;;;;;5115850;28;20035;-69
2021/11/18 09:41:37;;;;;;;49.97;38.67;;;307.20;2304.00;;;;;;5115333;28;20047;-70
2021/11/18 09:44:30;;;;;;;53.22;39.65;;;307.20;2304.00;;;;;;5115239;28;20123;-69
2021/11/18 09:47:34;;;;;;;58.80;43.75;;;307.30;2304.00;;;;;;5115508;28;20474;-70
2021/11/18 09:50:13;;;;;;;49.17;36.35;;;307.50;2304.00;;;;;;5115112;28;20478;-69
2021/11/18 09:53:15;;;;;;;37.70;27.88;;;307.40;2304.00;;;;;;5115083;28;20019;-69
2021/11/18 09:56:10;;;;;;;36.10;25.52;;;307.40;2304.00;;;;;;5115206;28;20119;-68
2021/11/18 09:59:16;;;;;;;32.95;24.23;;;307.30;2304.00;;;;;;5052148;28;20033;-70
2021/11/18 10:02:10;;;;;;;42.30;31.83;;;282.50;2278.40;;;;;;5052344;28;20471;-70
2021/11/18 10:04:39;;;;;;;39.92;28.48;;;282.50;2278.40;;;;;;5052402;28;20083;-70
2021/11/18 10:07:39;;;;;;;44.42;29.02;;;307.30;2304.00;;;;;;5051899;28;20028;-69
2021/11/18 10:10:26;;;;;;;43.33;32.05;;;307.40;2304.00;;;;;;5032881;28;20500;-70
2021/11/18 10:13:18;;;;;;;53.13;36.88;;;307.50;2304.00;;;;;;5051916;28;20025;-70
2021/11/18 10:15:49;;;;;;;51.83;35.55;;;307.30;2304.00;;;;;;5043843;28;20083;-69
2021/11/18 10:18:46;;;;;;;48.38;33.50;;;307.30;2304.00;;;;;;5052026;28;20148;-69
2021/11/18 10:21:22;;;;;;;45.33;30.55;;;307.50;2304.00;;;;;;5033989;28;20438;-70
2021/11/18 10:23:51;;;;;;;36.83;25.73;;;307.40;2304.00;;;;;;5051865;28;20091;-69
2021/11/18 10:26:24;;;;;;;37.53;27.45;;;307.20;2304.00;;;;;;5051536;28;20028;-70
2021/11/18 10:28:59;;;;;;;42.72;31.00;;;307.70;2278.40;;;;;;5051719;28;20722;-70
2021/11/18 10:31:50;;;;;;;39.67;27.88;;;307.60;2304.00;;;;;;5051473;28;20029;-70
2021/11/18 10:34:24;;;;;;;38.33;25.77;;;307.50;2278.40;;;;;;5051561;28;20116;-70
2021/11/18 10:36:53;;;;;;;45.97;29.48;;;;;;;;;;5114266;28;20288;-70
2021/11/18 10:39:19;;;;;;;36.65;26.55;;;;;;;;;;5113923;28;20106;-70
2021/11/18 10:42:01;;;;;;;37.28;27.75;;;307.80;2176.00;;;;;;5114125;28;20501;-70
2021/11/18 10:44:28;;;;;;;41.25;28.58;;;;;;;;;;5114022;28;20099;-69
2021/11/18 10:47:00;;;;;;;40.40;24.17;;;308.10;2124.80;;;;;;5095598;28;20024;-68
2021/11/18 10:49:42;;;;;;;37.08;25.05;;;307.90;2304.00;;;;;;5113820;28;20077;-69
2021/11/18 10:52:18;;;;;;;41.55;27.35;;;;;;;;;;5113741;28;20069;-71
2021/11/18 10:54:47;;;;;;;43.85;30.77;;;307.80;2176.00;;;;;;5095547;28;20030;-67
2021/11/18 10:57:18;;;;;;;46.20;31.88;;;;;;;;;;5112963;28;20030;-71
2021/11/18 10:59:46;;;;;;;38.17;26.00;;;;;;;;;;5113846;28;20026;-70
2021/11/18 11:02:18;;;;;;;43.00;27.95;;;;;;;;;;5113652;28;20424;-67
2021/11/18 11:04:46;;;;;;;45.35;31.45;;;307.50;2201.60;;;;;;5113692;28;20019;-70
2021/11/18 11:07:13;;;;;;;39.33;29.17;;;;;;;;;;5113720;28;20035;-71
2021/11/18 11:09:41;;;;;;;37.50;27.48;;;;;;;;;;5113748;28;20040;-70
2021/11/18 11:12:11;;;;;;;38.08;27.33;;;;;;;;;;5113363;28;20038;-70
2021/11/18 11:14:52;;;;;;;50.63;32.63;;;308.10;2099.20;;;;;;5112988;28;20386;-68
2021/11/18 11:17:20;;;;;;;41.53;25.17;;;308.10;2099.20;;;;;;5113484;28;20068;-70
2021/11/18 11:20:13;;;;;;;37.67;27.88;;;308.00;2073.60;;;;;;5113315;28;20034;-69
2021/11/18 11:22:52;;;;;;;36.78;23.98;;;332.90;2073.60;;;;;;5113295;28;20019;-70
2021/11/18 11:25:27;;;;;;;41.95;29.05;;;332.80;2048.00;;;;;;5094932;28;20026;-70
2021/11/18 11:28:17;;;;;;;30.20;20.70;;;333.00;2048.00;;;;;;5112957;28;20050;-71
2021/11/18 11:31:10;;;;;;;38.40;23.52;;;307.90;1996.80;;;;;;5113332;28;20466;-71
2021/11/18 11:33:54;;;;;;;39.40;26.85;;;;;;;;;;5113115;28;20496;-67
2021/11/18 11:36:28;;;;;;;30.23;22.80;;;308.10;2022.40;;;;;;5113104;28;20114;-70
2021/11/18 11:38:54;;;;;;;34.05;22.17;;;;;;;;;;5113197;28;20475;-71
2021/11/18 11:41:46;;;;;;;32.70;21.75;;;308.00;2022.40;;;;;;5113643;28;20027;-71
2021/11/18 11:44:11;;;;;;;39.65;26.35;;;308.10;2022.40;;;;;;5112972;28;20032;-70
2021/11/18 11:46:59;;;;;;;44.58;28.85;;;308.10;2022.40;;;;;;5112965;28;20024;-70
2021/11/18 11:49:31;;;;;;;37.63;22.50;;;308.10;1996.80;;;;;;5113069;28;20023;-71
2021/11/18 11:52:28;;;;;;;46.63;30.10;;;332.80;2022.40;;;;;;5113033;28;20020;-70
2021/11/18 11:55:15;;;;;;;35.65;24.08;;;332.90;2022.40;;;;;;5094471;28;20378;-70
2021/11/18 11:57:54;;;;;;;45.80;25.55;;;308.00;1996.80;;;;;;5112836;28;20023;-70
2021/11/18 12:00:33;;;;;;;41.03;24.20;;;;;;;;;;5112788;28;20016;-71
2021/11/18 12:02:59;;;;;;;55.08;29.65;;;308.00;1996.80;;;;;;5112792;28;20036;-70
2021/11/18 12:05:32;;;;;;;39.53;26.05;;;308.10;1971.20;;;;;;5112760;28;20389;-70
2021/11/18 12:07:58;;;;;;;42.08;29.08;;;;;;;;;;5113079;28;20030;-70
2021/11/18 12:10:26;;;;;;;40.70;24.83;;;;;;;;;;5116965;28;20027;-69
2021/11/18 12:13:36;;;;;;;32.75;21.80;;;307.70;1971.20;;;;;;5116821;28;20440;-70
2021/11/18 12:16:24;;;;;;;40.63;23.73;;;307.60;1996.80;;;;;;5053912;28;20044;-70
2021/11/18 12:19:22;;;;;;;45.05;20.67;;;332.80;2176.00;;;;;;5054046;28;20024;-70
2021/11/18 12:21:48;;;;;;;36.08;22.75;;;333.10;1920.00;;;;;;4994594;28;20041;-70
2021/11/18 12:24:20;;;;;;;50.15;30.15;;;332.90;1945.60;;;;;;4994726;28;20026;-71
2021/11/18 12:26:54;;;;;;;37.22;21.25;;;;;;;;;;4994498;28;20126;-71
2021/11/18 12:29:22;;;;;;;32.80;19.75;;;;;;;;;;5012371;28;20153;-70
2021/11/18 12:32:00;;;;;;;62.80;28.50;;;;;;;;;;5013922;28;20533;-70
2021/11/18 12:34:44;;;;;;;34.25;21.88;;;;;;;;;;5013859;28;20037;-70
2021/11/18 12:37:30;;;;;;;39.90;21.98;;;332.90;1868.80;;;;;;5013806;28;20148;-70
2021/11/18 12:40:05;;;;;;;41.10;23.52;;;332.90;1894.40;;;;;;5013830;28;20050;-70
2021/11/18 12:42:54;;;;;;;32.95;18.85;;;333.00;1868.80;;;;;;5013791;28;20372;-70
2021/11/18 12:45:52;;;;;;;34.15;20.58;;;333.00;1868.80;;;;;;5013732;28;20124;-70
2021/11/18 12:48:22;;;;;;;39.42;26.58;;;332.80;1894.40;;;;;;5013780;28;20061;-69